Latest Weather Observations for Eildon Fire Tower

IDV60801

Issued at 11:04 am EST Friday 30 September 2016 (issued every 30 minutes, with the page automatically refreshed every 10 minutes)

About weather observations | Map of weather stations | Latest weather observations for VIC | Other Formats
Station Details ID: 088164 Name: EILDON FIRE TOWER Lat: -37.21 Lon: 145.84 Height: 637.0 m
Data from the previous 72 hours. | See also: Recent months at Eildon Fire Tower
Date/Time
EST
Temp
°C
App
Temp
°C
Dew
Point
°C
Rel
Hum
%
Delta-T
°C
Wind Press
QNH
hPa
Press
MSL
hPa
Rain since
9am
mm
Dir  Spd
km/h
Gust
km/h
Spd
kts
Gust
kts
30/11:00am 8.3 6.5 8.0 98 0.1 NNW 7 15 4 8 - - 0.4
30/10:30am 7.5 5.7 7.2 98 0.1 NW 6 9 3 5 - - 0.4
30/10:00am 7.8 6.1 7.5 98 0.1 N 6 9 3 5 - - 0.4
30/09:30am 5.5 3.7 5.2 98 0.1 NNE 4 6 2 3 - - 0.2
30/09:00am 6.0 4.3 5.9 99 0.0 NE 4 7 2 4 - - 19.0
30/08:30am 6.1 3.9 6.0 99 0.0 ENE 7 9 4 5 - - 19.0
30/08:00am 4.8 1.1 4.5 98 0.1 E 13 17 7 9 - - 19.0
30/07:30am 4.5 0.0 4.2 98 0.1 E 17 20 9 11 - - 19.0
30/07:00am 4.3 -0.8 4.0 98 0.1 E 20 26 11 14 - - 17.6
30/06:30am 4.3 -0.8 4.0 98 0.1 E 20 24 11 13 - - 17.6
30/06:00am 4.4 0.3 4.1 98 0.1 E 15 24 8 13 - - 17.6
30/05:30am 4.4 -0.5 4.1 98 0.1 NE 19 26 10 14 - - 15.2
30/05:00am 4.5 -0.6 4.2 98 0.1 NE 20 26 11 14 - - 15.0
30/04:30am 4.7 -0.1 4.4 98 0.1 NE 19 28 10 15 - - 13.8
30/04:00am 4.9 0.1 4.6 98 0.1 NNE 19 30 10 16 - - 12.8
30/03:30am 5.4 0.1 5.1 98 0.1 NE 22 33 12 18 - - 12.6
30/03:00am 5.9 1.7 5.6 98 0.1 NE 17 28 9 15 - - 12.4
30/02:30am 5.9 2.4 5.6 98 0.1 NE 13 20 7 11 - - 9.6
30/02:00am 5.9 1.3 5.6 98 0.1 NE 19 32 10 17 - - 9.0
30/01:30am 6.0 1.2 5.7 98 0.1 NE 20 33 11 18 - - 8.8
30/01:00am 6.0 2.6 5.7 98 0.1 NE 13 28 7 15 - - 8.8
30/12:30am 6.0 2.2 5.7 98 0.1 NE 15 28 8 15 - - 8.8
30/12:00am 5.8 1.0 5.5 98 0.1 NE 20 37 11 20 - - 8.4
 
Date/Time
EST
Temp
°C
App
Temp
°C
Dew
Point
°C
Rel
Hum
%
Delta-T
°C
Wind Press
QNH
hPa
Press
MSL
hPa
Rain since
9am
mm
Dir  Spd
km/h
Gust
km/h
Spd
kts
Gust
kts
29/11:30pm 5.5 0.2 5.2 98 0.1 NE 22 35 12 19 - - 8.2
29/11:00pm 5.0 -1.1 4.7 98 0.1 NE 26 43 14 23 - - 8.2
29/10:30pm 4.9 -0.5 4.6 98 0.1 NE 22 35 12 19 - - 8.2
29/10:00pm 5.4 0.1 5.1 98 0.1 NE 22 37 12 20 - - 7.4
29/09:30pm 5.5 0.8 5.2 98 0.1 NE 19 33 10 18 - - 6.8
29/09:00pm 5.2 -0.5 4.9 98 0.1 NE 24 39 13 21 - - 5.6
29/08:45pm 5.2 -1.6 4.9 98 0.1 NE 30 50 16 27 - - 5.0
29/08:30pm 5.2 -1.3 4.8 97 0.2 NE 28 43 15 23 - - 4.8
29/08:00pm 5.0 -0.8 4.6 97 0.2 NE 24 35 13 19 - - 4.8
29/07:30pm 4.9 -0.2 4.3 96 0.3 NE 20 35 11 19 - - 4.6
29/07:00pm 5.3 0.9 4.7 96 0.3 NNE 17 26 9 14 - - 3.8
29/06:30pm 5.6 0.8 4.7 94 0.4 NNE 19 35 10 19 - - 3.8
29/06:00pm 6.2 0.0 4.5 89 0.8 NE 26 43 14 23 - - 1.8
29/05:30pm 6.1 0.7 4.7 91 0.6 NE 22 33 12 18 - - 1.8
29/05:00pm 6.0 -0.3 4.0 87 0.9 NNE 26 44 14 24 - - 1.8
29/04:51pm 6.5 -0.1 4.0 84 1.1 NNE 28 50 15 27 - - 1.6
29/04:30pm 8.0 2.9 4.2 77 1.7 NE 20 37 11 20 - - 1.2
29/04:00pm 8.4 3.3 6.0 85 1.1 NNE 22 35 12 19 - - 1.2
29/03:36pm 7.3 0.7 4.1 80 1.4 NNE 28 57 15 31 - - 0.8
29/03:30pm 7.7 2.3 4.3 79 1.5 NNE 22 37 12 20 - - 0.8
29/03:00pm 7.2 -0.5 2.5 72 2.0 NNE 32 57 17 31 - - 0.6
29/02:57pm 8.0 1.1 2.7 69 2.3 NNE 28 57 15 31 - - 0.6
29/02:30pm 9.4 4.1 2.9 64 2.9 N 20 33 11 18 - - 0.6
29/02:00pm 10.5 6.0 4.2 65 2.9 NNE 17 35 9 19 - - 0.6
29/01:30pm 9.2 4.6 5.6 78 1.7 NNE 19 30 10 16 - - 0.4
29/01:00pm 9.3 4.2 3.9 69 2.5 NNE 20 44 11 24 - - 0.4
29/12:30pm 9.1 4.5 3.9 70 2.4 N 17 30 9 16 - - 0.4
29/12:00pm 9.2 4.8 5.0 75 2.0 N 17 33 9 18 - - 0.4
29/11:30am 8.4 5.4 5.9 84 1.2 NNW 11 24 6 13 - - 0.4
29/11:00am 7.5 5.4 6.6 94 0.4 N 7 15 4 8 - - 0.4
29/10:30am 6.4 1.5 5.2 92 0.5 N 20 33 11 18 - - 0.4
29/10:05am 5.8 -1.2 4.0 88 0.8 NNW 30 50 16 27 - - 0.4
29/10:00am 6.0 -1.4 4.2 88 0.8 NNW 32 50 17 27 - - 0.2
29/09:56am 6.3 -0.5 5.1 92 0.5 NNW 30 50 16 27 - - 0.2
29/09:30am 7.2 3.2 6.5 95 0.3 NNW 17 32 9 17 - - 0.2
29/09:00am 7.3 4.1 6.9 97 0.2 NE 13 19 7 10 - - 23.0
29/08:30am 7.4 3.8 6.8 96 0.3 NE 15 19 8 10 - - 22.0
29/08:00am 7.1 3.4 6.4 95 0.3 ENE 15 20 8 11 - - 22.0
29/07:30am 7.1 4.2 6.5 96 0.3 NNE 11 13 6 7 - - 22.0
29/07:00am 7.1 3.8 6.2 94 0.4 NNE 13 22 7 12 - - 22.0
29/06:30am 7.9 1.1 7.0 94 0.4 NNW 32 48 17 26 - - 21.4
29/06:17am 8.3 0.8 8.0 98 0.1 N 37 57 20 31 - - 20.8
29/06:03am 9.1 3.5 8.8 98 0.2 NNE 28 48 15 26 - - 19.0
29/06:00am 9.1 2.8 8.8 98 0.2 NNE 32 48 17 26 - - 18.4
29/05:31am 9.2 3.6 8.9 98 0.2 NNE 28 54 15 29 - - 15.6
29/05:30am 9.2 4.0 8.9 98 0.2 NNE 26 54 14 29 - - 15.4
29/05:00am 9.2 3.6 8.9 98 0.2 NNE 28 52 15 28 - - 13.2
29/04:30am 9.1 2.2 8.8 98 0.2 NE 35 56 19 30 - - 12.6
29/04:03am 8.8 1.8 8.5 98 0.2 NE 35 61 19 33 - - 12.4
29/04:00am 8.8 2.2 8.5 98 0.2 NE 33 52 18 28 - - 12.0
29/03:49am 8.6 1.6 8.3 98 0.1 NE 35 54 19 29 - - 11.6
29/03:30am 8.4 0.9 8.1 98 0.1 NE 37 54 20 29 - - 10.0
29/03:01am 8.3 0.4 7.9 97 0.2 NE 39 65 21 35 - - 7.2
29/03:00am 8.3 0.4 7.9 97 0.2 NE 39 57 21 31 - - 7.2
29/02:30am 8.3 1.5 7.7 96 0.3 NE 33 57 18 31 - - 4.8
29/02:13am 8.3 2.4 7.5 95 0.4 NE 28 48 15 26 - - 3.6
29/02:00am 8.4 3.3 7.5 94 0.4 NE 24 41 13 22 - - 3.0
29/01:30am 9.3 3.6 6.7 84 1.3 NE 26 41 14 22 - - 1.0
29/01:00am 10.2 1.5 6.2 76 1.9 NE 41 61 22 33 - - 0.4
29/12:30am 11.6 3.9 5.3 65 3.0 NE 35 63 19 34 - - 0.2
29/12:05am 11.4 0.8 5.1 65 3.0 NE 50 70 27 38 - - 0.2
29/12:00am 11.3 0.7 5.2 66 2.9 NE 50 69 27 37 - - 0.2
 
Date/Time
EST
Temp
°C
App
Temp
°C
Dew
Point
°C
Rel
Hum
%
Delta-T
°C
Wind Press
QNH
hPa
Press
MSL
hPa
Rain since
9am
mm
Dir  Spd
km/h
Gust
km/h
Spd
kts
Gust
kts
28/11:30pm 11.0 0.4 5.3 68 2.7 NE 50 74 27 40 - - 0.2
28/11:00pm 10.8 3.5 5.3 69 2.6 NE 33 56 18 30 - - 0.2
28/10:32pm 10.9 3.7 5.7 70 2.5 NE 33 57 18 31 - - 0.2
28/10:30pm 10.8 3.8 5.8 71 2.4 NE 32 48 17 26 - - 0.2
28/10:00pm 10.9 3.3 5.9 71 2.4 NE 35 57 19 31 - - 0.2
28/09:48pm 10.7 4.4 5.9 72 2.3 NE 28 50 15 27 - - 0.2
28/09:30pm 10.3 4.0 5.5 72 2.3 NE 28 43 15 23 - - 0.2
28/09:00pm 10.4 3.3 5.4 71 2.4 NE 32 44 17 24 - - 0.2
28/08:30pm 10.3 2.6 5.3 71 2.4 NE 35 50 19 27 - - 0.2
28/08:04pm 10.1 2.9 5.7 74 2.1 NE 33 56 18 30 - - 0.2
28/08:00pm 10.3 3.3 5.9 74 2.1 NE 32 44 17 24 - - 0.2
28/07:30pm 9.9 4.5 6.4 79 1.7 NE 24 39 13 21 - - 0.2
28/07:00pm 10.2 5.2 6.5 78 1.8 NE 22 41 12 22 - - 0.2
28/06:30pm 10.4 4.7 6.5 77 1.9 NE 26 39 14 21 - - 0.2
28/06:00pm 10.7 5.4 6.6 76 2.0 NE 24 43 13 23 - - 0.2
28/05:30pm 11.0 5.9 6.2 72 2.3 NE 22 35 12 19 - - 0.2
28/05:00pm 11.4 6.8 6.3 71 2.5 NNE 20 35 11 19 - - 0.2
28/04:30pm 11.7 8.1 6.8 72 2.4 NE 15 24 8 13 - - 0.2
28/04:00pm 11.7 6.6 6.2 69 2.7 NE 22 35 12 19 - - 0.2
28/03:30pm 12.3 8.3 6.8 69 2.7 NE 17 28 9 15 - - 0.2
28/03:00pm 12.3 8.0 6.8 69 2.7 NE 19 32 10 17 - - 0.2
28/02:30pm 12.1 7.2 6.8 70 2.6 NE 22 32 12 17 - - 0.2
28/02:00pm 12.0 6.7 6.9 71 2.5 NE 24 39 13 21 - - 0.2
28/01:30pm 12.3 7.9 7.2 71 2.6 NE 20 33 11 18 - - 0.2
28/01:00pm 11.6 7.7 6.9 73 2.3 NE 17 24 9 13 - - 0.2
28/12:30pm 11.7 8.6 7.2 74 2.2 NE 13 20 7 11 - - 0.2
28/12:00pm 11.4 10.0 7.1 75 2.1 NE 4 9 2 5 - - 0.2
28/11:30am 10.4 8.9 6.9 79 1.7 E 4 11 2 6 - - 0.2
28/11:00am 11.2 8.7 8.4 83 1.4 NE 11 17 6 9 - - 0.0
28/10:30am 10.4 8.6 9.5 94 0.5 NE 9 15 5 8 - - 0.0
28/10:00am 8.8 6.8 8.5 98 0.2 NNE 9 15 5 8 - - 0.0
28/09:30am 7.1 4.7 6.8 98 0.1 NNE 9 17 5 9 - - 0.0
28/09:00am 6.4 3.0 6.1 98 0.1 NE 13 17 7 9 - - 0.8
28/08:30am 6.3 2.9 6.0 98 0.1 NE 13 22 7 12 - - 0.8
28/08:00am 6.0 2.9 5.7 98 0.1 NNE 11 15 6 8 - - 0.8
28/07:30am 5.9 2.8 5.6 98 0.1 NE 11 17 6 9 - - 0.8
28/07:00am 5.8 3.5 5.5 98 0.1 NE 7 11 4 6 - - 0.8
28/06:30am 5.6 3.4 5.3 98 0.1 NE 6 9 3 5 - - 0.8
28/06:00am 5.6 3.4 5.3 98 0.1 NNE 6 9 3 5 - - 0.8
28/05:30am 5.6 3.2 5.3 98 0.1 NE 7 9 4 5 - - 0.8
28/05:00am 5.6 3.4 5.3 98 0.1 NNE 6 9 3 5 - - 0.8
28/04:30am 5.7 3.3 5.4 98 0.1 NNE 7 11 4 6 - - 0.8
28/04:00am 5.9 3.6 5.6 98 0.1 NNE 7 11 4 6 - - 0.8
28/03:30am 6.1 3.8 5.8 98 0.1 NE 7 11 4 6 - - 0.8
28/03:00am 6.0 3.7 5.7 98 0.1 ENE 7 9 4 5 - - 0.8
28/02:30am 6.1 4.0 5.8 98 0.1 ENE 6 7 3 4 - - 0.8
28/02:00am 6.1 3.8 5.8 98 0.1 NE 7 11 4 6 - - 0.8
28/01:30am 5.8 3.4 5.4 97 0.2 NE 7 11 4 6 - - 0.6
28/01:00am 5.8 3.4 5.4 97 0.2 NE 7 9 4 5 - - 0.6
28/12:30am 6.2 4.1 5.6 96 0.3 N 6 7 3 4 - - 0.6
28/12:00am 6.3 5.3 5.6 95 0.3 CALM 0 6 0 3 - - 0.6
 
Date/Time
EST
Temp
°C
App
Temp
°C
Dew
Point
°C
Rel
Hum
%
Delta-T
°C
Wind Press
QNH
hPa
Press
MSL
hPa
Rain since
9am
mm
Dir  Spd
km/h
Gust
km/h
Spd
kts
Gust
kts
27/11:30pm 6.5 5.5 5.8 95 0.3 CALM 0 0 0 0 - - 0.6
27/11:00pm 6.8 5.4 5.7 93 0.5 WNW 2 2 1 1 - - 0.6
27/10:30pm 7.0 6.0 5.6 91 0.6 CALM 0 2 0 1 - - 0.6
27/10:00pm 7.1 5.8 6.2 94 0.4 NW 2 4 1 2 - - 0.6
27/09:30pm 7.2 6.0 6.6 96 0.3 NW 2 4 1 2 - - 0.6
27/09:00pm 7.1 6.0 6.7 97 0.2 WNW 2 6 1 3 - - 0.6
27/08:30pm 7.2 4.8 6.8 97 0.2 W 9 13 5 7 - - 0.6
27/08:00pm 7.2 4.3 6.6 96 0.3 W 11 13 6 7 - - 0.4
27/07:30pm 7.2 4.3 6.6 96 0.3 W 11 13 6 7 - - 0.4
27/07:00pm 7.2 4.3 6.6 96 0.3 WSW 11 11 6 6 - - 0.4
27/06:30pm 7.2 4.7 6.5 95 0.3 W 9 11 5 6 - - 0.4
27/06:00pm 7.3 5.4 6.6 95 0.3 WSW 6 7 3 4 - - 0.4
27/05:30pm 7.3 4.8 6.7 96 0.3 W 9 13 5 7 - - 0.4
27/05:00pm 7.3 4.0 6.6 95 0.3 W 13 19 7 10 - - 0.4
27/04:30pm 8.1 4.5 6.6 90 0.7 W 15 19 8 10 - - 0.2
27/04:00pm 8.4 5.6 6.9 90 0.7 WSW 11 15 6 8 - - 0.2
27/03:30pm 8.1 3.3 5.7 85 1.1 W 20 28 11 15 - - 0.2
27/03:00pm 8.9 5.7 4.9 76 1.9 W 11 17 6 9 - - 0.2
27/02:30pm 9.1 5.4 4.5 73 2.1 W 13 19 7 10 - - 0.2
27/02:00pm 9.4 6.5 4.6 72 2.2 W 9 13 5 7 - - 0.2
27/01:30pm 8.8 4.6 4.0 72 2.2 W 15 24 8 13 - - 0.2
27/01:00pm 9.7 5.6 4.3 69 2.5 W 15 22 8 12 - - 0.2
27/12:30pm 9.8 5.8 4.8 71 2.3 W 15 20 8 11 - - 0.2
27/12:00pm 8.0 3.0 3.7 74 1.9 W 19 26 10 14 - - 0.2
27/11:30am 8.4 4.2 4.0 74 2.0 W 15 26 8 14 - - 0.2

Other Formats:

Comma delimited format used in spreadsheet applications
http://www.bom.gov.au/fwo/IDV60801/IDV60801.94881.axf

JavaScript Object Notation format (JSON) in row-major order
http://www.bom.gov.au/fwo/IDV60801/IDV60801.94881.json